createdAt,value
2023-05-19T00:01:17.982Z,2.33
2023-05-19T00:11:41.424Z,2.38
2023-05-19T00:22:05.356Z,2.47
2023-05-19T00:32:27.029Z,2.13
2023-05-19T00:42:50.036Z,2.28
2023-05-19T00:53:12.828Z,2.28
2023-05-19T01:03:37.167Z,2.40
2023-05-19T01:13:59.092Z,2.47
2023-05-19T01:24:55.327Z,2.47
2023-05-19T01:35:18.776Z,2.58
2023-05-19T01:45:43.056Z,2.00
2023-05-19T01:56:07.473Z,2.00
2023-05-19T02:06:38.043Z,2.22
2023-05-19T02:17:04.429Z,2.05
2023-05-19T02:27:28.294Z,1.95
2023-05-19T02:37:51.610Z,2.10
2023-05-19T02:48:13.918Z,1.63
2023-05-19T02:58:37.265Z,2.17
2023-05-19T03:08:59.906Z,1.92
2023-05-19T03:19:23.424Z,2.15
2023-05-19T03:29:45.396Z,2.80
2023-05-19T03:40:10.676Z,2.13
2023-05-19T03:50:35.349Z,1.83
2023-05-19T04:01:09.218Z,1.90
2023-05-19T04:11:32.072Z,2.40
2023-05-19T04:21:54.930Z,2.20
2023-05-19T04:32:18.517Z,2.33
2023-05-19T04:42:42.742Z,2.47
2023-05-19T04:53:05.550Z,2.28
2023-05-19T05:03:28.946Z,2.28
2023-05-19T05:13:51.491Z,1.95
2023-05-19T05:24:16.759Z,2.20
2023-05-19T05:34:44.207Z,2.53
2023-05-19T05:45:09.658Z,2.65
2023-05-19T05:55:36.411Z,2.55
2023-05-19T06:06:01.934Z,2.63
2023-05-19T06:16:24.276Z,2.80
2023-05-19T06:26:49.819Z,2.40
2023-05-19T06:37:14.927Z,3.17
2023-05-19T06:47:38.403Z,2.33
2023-05-19T06:58:00.904Z,2.60
2023-05-19T07:08:27.035Z,2.83
2023-05-19T07:18:51.675Z,2.55
2023-05-19T07:29:14.958Z,2.37
2023-05-19T07:39:36.851Z,2.53
2023-05-19T07:49:59.641Z,3.13
2023-05-19T08:00:21.640Z,2.42
2023-05-19T08:10:44.977Z,2.30
2023-05-19T08:21:06.780Z,2.25
2023-05-19T08:31:29.712Z,2.10
2023-05-19T08:41:52.522Z,2.30
2023-05-19T08:52:24.380Z,2.22
2023-05-19T09:02:59.800Z,2.53
2023-05-19T09:13:29.536Z,1.90
2023-05-19T09:23:51.022Z,1.70
2023-05-19T09:34:17.500Z,1.52
2023-05-19T09:44:39.336Z,1.80
2023-05-19T09:55:04.348Z,1.60
2023-05-19T10:05:28.616Z,1.73
2023-05-19T10:26:17.879Z,1.92
2023-05-19T10:36:46.636Z,1.55
2023-05-19T10:47:08.696Z,1.70
2023-05-19T10:57:33.955Z,1.55
2023-05-19T11:07:57.556Z,1.60
2023-05-19T11:18:21.259Z,1.70
2023-05-19T11:28:43.552Z,1.67
2023-05-19T11:39:07.461Z,2.75
2023-05-19T11:49:29.549Z,2.17
2023-05-19T11:59:56.755Z,2.03
2023-05-19T12:10:19.885Z,2.08
2023-05-19T12:20:43.073Z,1.63
2023-05-19T12:31:04.725Z,2.17
2023-05-19T12:41:28.297Z,3.78
2023-05-19T12:51:53.410Z,2.63
2023-05-19T13:02:18.158Z,1.60
2023-05-19T13:23:04.781Z,1.60
2023-05-19T13:33:29.633Z,1.83
2023-05-19T13:43:54.373Z,1.80
2023-05-19T13:54:15.890Z,1.33
2023-05-19T14:04:39.767Z,1.85
2023-05-19T14:15:02.554Z,2.10
2023-05-19T14:25:25.823Z,1.90
2023-05-19T14:35:47.868Z,1.90
2023-05-19T14:46:11.214Z,1.80
2023-05-19T14:56:32.810Z,1.80
2023-05-19T15:07:09.846Z,2.00
2023-05-19T15:17:32.568Z,1.83
2023-05-19T15:27:55.812Z,1.80
2023-05-19T15:38:18.698Z,1.93
2023-05-19T15:48:41.909Z,2.22
2023-05-19T15:59:03.562Z,1.90
2023-05-19T16:09:26.396Z,2.55
2023-05-19T16:19:48.461Z,2.30
2023-05-19T16:30:12.687Z,1.92
2023-05-19T16:40:34.492Z,2.22
2023-05-19T16:50:57.439Z,2.30
2023-05-19T17:01:34.945Z,2.15
2023-05-19T17:11:58.233Z,2.05
2023-05-19T17:22:20.385Z,2.03
2023-05-19T17:32:43.679Z,2.00
2023-05-19T17:43:08.167Z,1.92
2023-05-19T17:53:31.807Z,2.20
2023-05-19T18:03:54.613Z,1.98
2023-05-19T18:14:17.867Z,2.60
2023-05-19T18:24:39.727Z,2.08
2023-05-19T18:35:02.684Z,2.45
2023-05-19T18:45:24.382Z,2.33
2023-05-19T18:55:47.718Z,2.67
2023-05-19T19:06:09.494Z,3.03
2023-05-19T19:16:32.711Z,3.10
2023-05-19T19:26:54.359Z,3.25
2023-05-19T19:37:17.576Z,2.70
2023-05-19T19:47:39.359Z,3.00
2023-05-19T19:58:02.634Z,3.30
2023-05-19T20:08:24.626Z,2.83
2023-05-19T20:18:47.728Z,3.10
2023-05-19T20:29:09.241Z,3.25
2023-05-19T20:39:32.670Z,3.22
2023-05-19T20:49:54.647Z,3.50
2023-05-19T21:00:18.709Z,3.42
2023-05-19T21:10:40.901Z,3.72
2023-05-19T21:21:04.773Z,3.40
2023-05-19T21:31:26.132Z,3.58
2023-05-19T21:41:49.384Z,3.05
2023-05-19T21:52:11.289Z,3.20
2023-05-19T22:02:34.608Z,3.63
2023-05-19T22:12:57.444Z,3.50
2023-05-19T22:23:20.865Z,3.75
2023-05-19T22:33:42.522Z,3.45
2023-05-19T22:44:05.781Z,3.80
2023-05-19T22:54:27.523Z,3.60
2023-05-19T23:04:50.886Z,3.70
2023-05-19T23:15:13.114Z,3.83
2023-05-19T23:25:36.313Z,3.70
2023-05-19T23:35:58.131Z,3.80
2023-05-19T23:46:21.240Z,4.25
2023-05-19T23:56:42.718Z,3.60
